Hays, KS

2:32 PM CDT on March 24, 2017 (GMT -0500)
Hays Regional

Weather History for KHYS - April, 2014

Change the Weather History Date:

Wednesday, April 16, 2014

  Actual Average Record
Temperature  
Mean Temperature 56 °F -  
Max Temperature 68 °F 62 °F 89 °F (2002)
Min Temperature 44 °F 38 °F 28 °F (2011)
Degree Days  
Heating Degree Days 9    
Growing Degree Days 6 (Base 50)    
Moisture  
Dew Point 27 °F    
Average Humidity 35    
Maximum Humidity 57    
Minimum Humidity 24    
Precipitation  
Precipitation 0.00 in - - ()
Sea Level Pressure  
Sea Level Pressure 29.83 in    
Wind  
Wind Speed 19 mph (NW)    
Max Wind Speed 29 mph    
Max Gust Speed 34 mph    
Visibility 10 miles    
Events      
Averages and records for this station are not official NWS values.
T = Trace of Precipitation, MM = Missing Value Source: NWS Daily Summary

Daily Weather History Graph

Daily Weather History Graph

Search for Another Location

Airport or City:

Trip Planner

Search our weather history database for the weather conditions in past years. The results will help you decide how hot, cold, wet, or windy it might be!

Date:

Astronomy

Apr. 16, 2014 Rise Set
Actual Time 6:59 AM CDT 8:15 PM CDT
Civil Twilight 6:31 AM CDT 8:42 PM CDT
Nautical Twilight 5:58 AM CDT 9:15 PM CDT
Astronomical Twilight 5:24 AM CDT 9:50 PM CDT
Moon 9:59 PM CDT (4/16) 7:48 AM CDT (4/16)
Length of Visible Light 14h 11m
Length of Day
13h 15m
Full, 98% of the Moon is Illuminated
Apr 16
Full
Apr 22
Last Quarter
Apr 29
New
May 6
First Quarter
May 14
Full

Hourly Weather History & Observations

Time (CDT) Temp. Windchill Dew Point Humidity Pressure Visibility Wind Dir Wind Speed Gust Speed Precip Events Conditions
12:15 AM 53.6 °F - 17.6 °F 24% 29.77 in 10.0 mi South 23.0 mph 28.8 mph N/A   Clear
12:35 AM 51.8 °F - 17.6 °F 26% 29.76 in 10.0 mi South 24.2 mph 28.8 mph N/A   Clear
12:55 AM 51.8 °F - 17.6 °F 26% 29.76 in 10.0 mi South 24.2 mph 29.9 mph N/A   Clear
1:15 AM 51.8 °F - 17.6 °F 26% 29.75 in 10.0 mi South 24.2 mph 32.2 mph N/A   Clear
1:35 AM 51.8 °F - 17.6 °F 26% 29.74 in 10.0 mi South 25.3 mph 31.1 mph N/A   Clear
1:55 AM 50.0 °F - 17.6 °F 28% 29.74 in 10.0 mi South 19.6 mph 26.5 mph N/A   Clear
2:15 AM 50.0 °F - 17.6 °F 28% 29.73 in 10.0 mi South 20.7 mph 28.8 mph N/A   Clear
2:35 AM 48.2 °F - 17.6 °F 30% 29.72 in 10.0 mi South 23.0 mph 28.8 mph N/A   Clear
2:55 AM 48.2 °F - 17.6 °F 30% 29.72 in 10.0 mi South 19.6 mph 26.5 mph N/A   Clear
3:15 AM 48.2 °F - 17.6 °F 30% 29.72 in 10.0 mi South 15.0 mph 24.2 mph N/A   Clear
3:35 AM 46.4 °F 39.8 °F 17.6 °F 32% 29.71 in 10.0 mi South 16.1 mph 20.7 mph N/A   Clear
3:55 AM 46.4 °F 39.8 °F 17.6 °F 32% 29.70 in 10.0 mi South 16.1 mph 21.9 mph N/A   Clear
4:15 AM 46.4 °F 39.8 °F 17.6 °F 32% 29.70 in 10.0 mi South 16.1 mph 21.9 mph N/A   Clear
4:35 AM 46.4 °F 40.4 °F 17.6 °F 32% 29.70 in 10.0 mi South 13.8 mph - N/A   Clear
4:55 AM 44.6 °F 38.1 °F 17.6 °F 34% 29.69 in 10.0 mi SSE 13.8 mph - N/A   Clear
5:15 AM 44.6 °F 39.2 °F 15.8 °F 31% 29.68 in 10.0 mi SSE 10.4 mph - N/A   Clear
5:35 AM 44.6 °F 37.2 °F 17.6 °F 34% 29.67 in 10.0 mi South 17.3 mph - N/A   Clear
5:55 AM 46.4 °F 39.5 °F 17.6 °F 32% 29.67 in 10.0 mi South 17.3 mph 20.7 mph N/A   Clear
6:15 AM 46.4 °F 40.4 °F 15.8 °F 29% 29.67 in 10.0 mi South 13.8 mph 19.6 mph N/A   Clear
6:35 AM 46.4 °F 39.5 °F 17.6 °F 32% 29.67 in 10.0 mi South 17.3 mph - N/A   Clear
6:55 AM 46.4 °F 38.7 °F 17.6 °F 32% 29.68 in 10.0 mi SSW 20.7 mph 26.5 mph N/A   Clear
7:15 AM 46.4 °F 38.7 °F 17.6 °F 32% 29.68 in 10.0 mi South 20.7 mph 25.3 mph N/A   Clear
7:35 AM 46.4 °F 40.1 °F 17.6 °F 32% 29.69 in 10.0 mi South 15.0 mph 20.7 mph N/A   Clear
7:55 AM 46.4 °F 41.5 °F 17.6 °F 32% 29.71 in 10.0 mi SSW 10.4 mph - N/A   Clear
8:15 AM 46.4 °F 40.4 °F 19.4 °F 34% 29.71 in 10.0 mi SSW 13.8 mph - N/A   Clear
8:35 AM 48.2 °F - 19.4 °F 32% 29.70 in 10.0 mi South 16.1 mph 23.0 mph N/A   Clear
8:55 AM 50.0 °F - 19.4 °F 30% 29.71 in 10.0 mi SSW 16.1 mph 20.7 mph N/A   Clear
9:15 AM 51.8 °F - 21.2 °F 30% 29.72 in 10.0 mi SW 18.4 mph - N/A   Clear
9:35 AM 53.6 °F - 21.2 °F 28% 29.73 in 10.0 mi SW 18.4 mph - N/A   Clear
9:55 AM 55.4 °F - 21.2 °F 26% 29.73 in 10.0 mi SW 17.3 mph 21.9 mph N/A   Clear
10:15 AM 57.2 °F - 23.0 °F 27% 29.74 in 10.0 mi West 11.5 mph 17.3 mph N/A   Clear
10:35 AM 59.0 °F - 28.4 °F 31% 29.75 in 10.0 mi WNW 13.8 mph 19.6 mph N/A   Clear
10:55 AM 62.6 °F - 33.8 °F 34% 29.75 in 10.0 mi NW 18.4 mph 21.9 mph N/A   Clear
11:15 AM 64.4 °F - 35.6 °F 34% 29.76 in 10.0 mi NNW 20.7 mph 25.3 mph N/A   Clear
11:35 AM 64.4 °F - 35.6 °F 34% 29.77 in 10.0 mi NW 21.9 mph 29.9 mph N/A   Clear
11:55 AM 64.4 °F - 35.6 °F 34% 29.77 in 10.0 mi NW 17.3 mph 26.5 mph N/A   Clear
12:15 PM 64.4 °F - 35.6 °F 34% 29.79 in 10.0 mi NW 18.4 mph 29.9 mph N/A   Clear
12:35 PM 62.6 °F - 35.6 °F 37% 29.80 in 10.0 mi NW 17.3 mph 24.2 mph N/A   Clear
12:55 PM 64.4 °F - 35.6 °F 34% 29.80 in 10.0 mi NW 20.7 mph 24.2 mph N/A   Clear
1:15 PM 64.4 °F - 35.6 °F 34% 29.81 in 10.0 mi NNW 18.4 mph 21.9 mph N/A   Clear
1:35 PM 66.2 °F - 35.6 °F 32% 29.81 in 10.0 mi NNW 19.6 mph 26.5 mph N/A   Clear
1:55 PM 66.2 °F - 33.8 °F 30% 29.81 in 10.0 mi NNW 20.7 mph 27.6 mph N/A   Clear
2:15 PM 66.2 °F - 33.8 °F 30% 29.81 in 10.0 mi NW 20.7 mph 29.9 mph N/A   Clear
2:35 PM 66.2 °F - 33.8 °F 30% 29.82 in 10.0 mi NNW 17.3 mph 28.8 mph N/A   Clear
2:55 PM 66.2 °F - 33.8 °F 30% 29.82 in 10.0 mi NW 16.1 mph 27.6 mph N/A   Scattered Clouds
3:15 PM 66.2 °F - 33.8 °F 30% 29.84 in 10.0 mi NNW 21.9 mph 26.5 mph N/A   Scattered Clouds
3:35 PM 66.2 °F - 33.8 °F 30% 29.83 in 10.0 mi NNW 26.5 mph - N/A   Scattered Clouds
3:55 PM 66.2 °F - 33.8 °F 30% 29.84 in 10.0 mi NNW 12.7 mph 21.9 mph N/A   Partly Cloudy
4:15 PM 66.2 °F - 33.8 °F 30% 29.85 in 10.0 mi NNW 20.7 mph 29.9 mph N/A   Mostly Cloudy
4:35 PM 68.0 °F - 33.8 °F 28% 29.85 in 10.0 mi NNW 21.9 mph 33.4 mph N/A   Mostly Cloudy
4:55 PM 66.2 °F - 30.2 °F 26% 29.86 in 10.0 mi NNW 21.9 mph 31.1 mph N/A   Partly Cloudy
5:15 PM 66.2 °F - 30.2 °F 26% 29.87 in 10.0 mi North 21.9 mph 31.1 mph N/A   Clear
5:35 PM 64.4 °F - 32.0 °F 30% 29.88 in 10.0 mi NNW 24.2 mph 33.4 mph N/A   Partly Cloudy
5:55 PM 64.4 °F - 33.8 °F 32% 29.90 in 10.0 mi North 26.5 mph 34.5 mph N/A   Clear
6:15 PM 62.6 °F - 33.8 °F 34% 29.91 in 10.0 mi North 28.8 mph 33.4 mph N/A   Clear
6:35 PM 60.8 °F - 32.0 °F 34% 29.93 in 10.0 mi North 21.9 mph 29.9 mph N/A   Clear
6:55 PM 57.2 °F - 33.8 °F 41% 29.94 in 10.0 mi North 23.0 mph 27.6 mph N/A   Clear
7:15 PM 55.4 °F - 33.8 °F 44% 29.96 in 10.0 mi NNE 21.9 mph 27.6 mph N/A   Clear
7:35 PM 55.4 °F - 33.8 °F 44% 29.97 in 10.0 mi NNE 17.3 mph - N/A   Clear
7:55 PM 53.6 °F - 33.8 °F 47% 29.99 in 10.0 mi NNE 17.3 mph - N/A   Clear
8:15 PM 53.6 °F - 33.8 °F 47% 30.00 in 10.0 mi NNE 11.5 mph - N/A   Clear
8:35 PM 53.6 °F - 32.0 °F 44% 30.02 in 10.0 mi NNE 11.5 mph - N/A   Clear
8:55 PM 51.8 °F - 32.0 °F 47% 30.04 in 10.0 mi NNE 10.4 mph - N/A   Partly Cloudy
9:15 PM 51.8 °F - 32.0 °F 47% 30.05 in 10.0 mi NNE 9.2 mph - N/A   Partly Cloudy
9:35 PM 51.8 °F - 32.0 °F 47% 30.07 in 10.0 mi NE 10.4 mph - N/A   Clear
9:55 PM 50.0 °F - 32.0 °F 50% 30.07 in 10.0 mi NNE 11.5 mph - N/A   Clear
10:15 PM 50.0 °F - 32.0 °F 50% 30.07 in 10.0 mi NE 12.7 mph - N/A   Clear
10:35 PM 48.2 °F - 32.0 °F 54% 30.08 in 10.0 mi NE 12.7 mph - N/A   Clear
10:55 PM 48.2 °F - 32.0 °F 54% 30.10 in 10.0 mi NE 13.8 mph - N/A   Partly Cloudy
11:15 PM 46.4 °F 40.1 °F 32.0 °F 57% 30.12 in 10.0 mi NE 15.0 mph - N/A   Scattered Clouds
11:35 PM 46.4 °F 40.1 °F 30.2 °F 53% 30.13 in 10.0 mi NNE 15.0 mph 20.7 mph N/A   Mostly Cloudy
11:55 PM 44.6 °F 37.8 °F 30.2 °F 57% 30.13 in 10.0 mi NNE 15.0 mph - N/A   Scattered Clouds